sensor_id;sensor_type;location;lat;lon;timestamp;P1;durP1;ratioP1;P2;durP2;ratioP2
5533;SDS011;2789;51.902;7.636;2024-03-25T00:00:46;80.70;;;53.55;;
5533;SDS011;2789;51.902;7.636;2024-03-25T00:01:47;53.78;;;38.95;;
5533;SDS011;2789;51.902;7.636;2024-03-25T00:02:49;50.63;;;36.90;;
5533;SDS011;2789;51.902;7.636;2024-03-25T00:03:49;72.03;;;48.38;;
5533;SDS011;2789;51.902;7.636;2024-03-25T00:04:50;74.70;;;48.40;;
5533;SDS011;2789;51.902;7.636;2024-03-25T00:05:51;72.68;;;49.75;;
5533;SDS011;2789;51.902;7.636;2024-03-25T00:06:52;88.00;;;54.70;;
5533;SDS011;2789;51.902;7.636;2024-03-25T00:07:54;69.63;;;48.28;;
5533;SDS011;2789;51.902;7.636;2024-03-25T00:08:54;87.47;;;56.15;;
5533;SDS011;2789;51.902;7.636;2024-03-25T00:09:56;90.55;;;56.20;;
5533;SDS011;2789;51.902;7.636;2024-03-25T00:11:00;61.63;;;44.25;;
5533;SDS011;2789;51.902;7.636;2024-03-25T00:12:01;76.15;;;48.67;;
5533;SDS011;2789;51.902;7.636;2024-03-25T00:13:04;25.52;;;22.77;;
5533;SDS011;2789;51.902;7.636;2024-03-25T00:14:06;52.10;;;39.75;;
5533;SDS011;2789;51.902;7.636;2024-03-25T00:15:07;62.20;;;45.35;;
5533;SDS011;2789;51.902;7.636;2024-03-25T00:16:08;48.38;;;38.67;;
5533;SDS011;2789;51.902;7.636;2024-03-25T00:17:09;61.88;;;45.63;;
5533;SDS011;2789;51.902;7.636;2024-03-25T00:18:11;52.10;;;40.60;;
5533;SDS011;2789;51.902;7.636;2024-03-25T00:19:12;42.30;;;37.10;;
5533;SDS011;2789;51.902;7.636;2024-03-25T00:20:12;34.08;;;22.50;;
5533;SDS011;2789;51.902;7.636;2024-03-25T00:21:15;38.35;;;25.05;;
5533;SDS011;2789;51.902;7.636;2024-03-25T00:22:16;57.10;;;42.50;;
5533;SDS011;2789;51.902;7.636;2024-03-25T00:23:17;50.83;;;40.10;;
5533;SDS011;2789;51.902;7.636;2024-03-25T00:24:17;22.20;;;15.25;;
5533;SDS011;2789;51.902;7.636;2024-03-25T00:25:18;23.63;;;19.48;;
5533;SDS011;2789;51.902;7.636;2024-03-25T00:26:21;47.60;;;33.28;;
5533;SDS011;2789;51.902;7.636;2024-03-25T00:27:22;49.85;;;40.35;;
5533;SDS011;2789;51.902;7.636;2024-03-25T00:28:23;53.95;;;34.85;;
5533;SDS011;2789;51.902;7.636;2024-03-25T00:29:24;65.40;;;46.95;;
5533;SDS011;2789;51.902;7.636;2024-03-25T00:30:26;66.03;;;46.92;;
5533;SDS011;2789;51.902;7.636;2024-03-25T00:31:27;70.63;;;48.42;;
5533;SDS011;2789;51.902;7.636;2024-03-25T00:32:27;51.63;;;40.97;;
5533;SDS011;2789;51.902;7.636;2024-03-25T00:33:29;50.38;;;40.22;;
5533;SDS011;2789;51.902;7.636;2024-03-25T00:34:30;92.47;;;57.97;;
5533;SDS011;2789;51.902;7.636;2024-03-25T00:35:31;63.90;;;44.47;;
5533;SDS011;2789;51.902;7.636;2024-03-25T00:36:32;73.72;;;47.03;;
5533;SDS011;2789;51.902;7.636;2024-03-25T00:37:34;42.40;;;34.67;;
5533;SDS011;2789;51.902;7.636;2024-03-25T00:38:34;48.35;;;36.00;;
5533;SDS011;2789;51.902;7.636;2024-03-25T00:39:35;51.15;;;40.03;;
5533;SDS011;2789;51.902;7.636;2024-03-25T00:40:37;97.65;;;60.97;;
5533;SDS011;2789;51.902;7.636;2024-03-25T00:41:39;79.57;;;50.13;;
5533;SDS011;2789;51.902;7.636;2024-03-25T00:42:40;64.25;;;41.63;;
5533;SDS011;2789;51.902;7.636;2024-03-25T00:43:40;26.65;;;23.80;;
5533;SDS011;2789;51.902;7.636;2024-03-25T00:44:41;30.35;;;26.50;;
5533;SDS011;2789;51.902;7.636;2024-03-25T00:45:43;57.67;;;37.50;;
5533;SDS011;2789;51.902;7.636;2024-03-25T00:46:44;44.90;;;32.13;;
5533;SDS011;2789;51.902;7.636;2024-03-25T00:47:44;27.08;;;24.40;;
5533;SDS011;2789;51.902;7.636;2024-03-25T00:48:46;31.63;;;28.38;;
5533;SDS011;2789;51.902;7.636;2024-03-25T00:49:47;31.30;;;28.15;;
5533;SDS011;2789;51.902;7.636;2024-03-25T00:50:48;38.10;;;33.45;;
5533;SDS011;2789;51.902;7.636;2024-03-25T00:51:48;27.45;;;24.90;;
5533;SDS011;2789;51.902;7.636;2024-03-25T00:52:50;44.13;;;35.97;;
5533;SDS011;2789;51.902;7.636;2024-03-25T00:53:51;53.30;;;41.95;;
5533;SDS011;2789;51.902;7.636;2024-03-25T00:54:52;52.80;;;40.45;;
5533;SDS011;2789;51.902;7.636;2024-03-25T00:55:53;74.70;;;49.38;;
5533;SDS011;2789;51.902;7.636;2024-03-25T00:56:56;78.15;;;49.13;;
5533;SDS011;2789;51.902;7.636;2024-03-25T00:57:57;73.13;;;48.38;;
5533;SDS011;2789;51.902;7.636;2024-03-25T00:58:58;95.30;;;57.80;;
5533;SDS011;2789;51.902;7.636;2024-03-25T01:00:02;80.85;;;51.80;;
5533;SDS011;2789;51.902;7.636;2024-03-25T01:01:05;92.35;;;56.13;;
5533;SDS011;2789;51.902;7.636;2024-03-25T01:02:06;122.30;;;67.03;;
5533;SDS011;2789;51.902;7.636;2024-03-25T01:03:08;39.95;;;33.10;;
5533;SDS011;2789;51.902;7.636;2024-03-25T01:04:09;34.75;;;30.70;;
5533;SDS011;2789;51.902;7.636;2024-03-25T01:05:11;110.38;;;57.95;;
5533;SDS011;2789;51.902;7.636;2024-03-25T01:06:12;94.07;;;50.53;;
5533;SDS011;2789;51.902;7.636;2024-03-25T01:07:13;27.35;;;24.42;;
5533;SDS011;2789;51.902;7.636;2024-03-25T01:08:13;47.13;;;31.42;;
5533;SDS011;2789;51.902;7.636;2024-03-25T01:09:15;22.23;;;19.95;;
5533;SDS011;2789;51.902;7.636;2024-03-25T01:10:16;24.50;;;21.35;;
5533;SDS011;2789;51.902;7.636;2024-03-25T01:11:17;25.95;;;20.52;;
5533;SDS011;2789;51.902;7.636;2024-03-25T01:12:19;18.58;;;16.92;;
5533;SDS011;2789;51.902;7.636;2024-03-25T01:13:21;35.88;;;25.05;;
5533;SDS011;2789;51.902;7.636;2024-03-25T01:14:21;26.15;;;20.63;;
5533;SDS011;2789;51.902;7.636;2024-03-25T01:15:22;18.73;;;15.43;;
5533;SDS011;2789;51.902;7.636;2024-03-25T01:16:24;28.33;;;18.17;;
5533;SDS011;2789;51.902;7.636;2024-03-25T01:17:25;17.67;;;14.88;;
5533;SDS011;2789;51.902;7.636;2024-03-25T01:18:25;16.88;;;14.80;;
5533;SDS011;2789;51.902;7.636;2024-03-25T01:19:26;23.85;;;18.25;;
5533;SDS011;2789;51.902;7.636;2024-03-25T01:20:28;20.70;;;17.50;;
5533;SDS011;2789;51.902;7.636;2024-03-25T01:21:28;69.35;;;35.72;;
5533;SDS011;2789;51.902;7.636;2024-03-25T01:22:30;24.17;;;19.00;;
5533;SDS011;2789;51.902;7.636;2024-03-25T01:23:31;25.35;;;19.45;;
5533;SDS011;2789;51.902;7.636;2024-03-25T01:24:33;22.83;;;18.88;;
5533;SDS011;2789;51.902;7.636;2024-03-25T01:25:33;24.70;;;20.73;;
5533;SDS011;2789;51.902;7.636;2024-03-25T01:26:35;22.25;;;19.95;;
5533;SDS011;2789;51.902;7.636;2024-03-25T01:27:37;18.15;;;16.88;;
5533;SDS011;2789;51.902;7.636;2024-03-25T01:28:38;42.10;;;28.48;;
5533;SDS011;2789;51.902;7.636;2024-03-25T01:29:39;39.60;;;28.60;;
5533;SDS011;2789;51.902;7.636;2024-03-25T01:30:40;51.28;;;33.83;;
5533;SDS011;2789;51.902;7.636;2024-03-25T01:31:41;95.20;;;49.47;;
5533;SDS011;2789;51.902;7.636;2024-03-25T01:32:42;121.13;;;57.15;;
5533;SDS011;2789;51.902;7.636;2024-03-25T01:33:43;117.93;;;58.25;;
5533;SDS011;2789;51.902;7.636;2024-03-25T01:34:44;40.33;;;34.17;;
5533;SDS011;2789;51.902;7.636;2024-03-25T01:35:45;37.88;;;32.75;;
5533;SDS011;2789;51.902;7.636;2024-03-25T01:36:47;47.08;;;37.17;;
5533;SDS011;2789;51.902;7.636;2024-03-25T01:37:48;49.50;;;36.72;;
5533;SDS011;2789;51.902;7.636;2024-03-25T01:38:49;36.35;;;32.53;;
5533;SDS011;2789;51.902;7.636;2024-03-25T01:39:50;54.65;;;40.28;;
5533;SDS011;2789;51.902;7.636;2024-03-25T01:40:51;79.53;;;49.03;;
5533;SDS011;2789;51.902;7.636;2024-03-25T01:41:52;81.30;;;50.45;;
5533;SDS011;2789;51.902;7.636;2024-03-25T01:42:58;87.82;;;50.53;;
5533;SDS011;2789;51.902;7.636;2024-03-25T01:44:00;100.07;;;58.42;;
5533;SDS011;2789;51.902;7.636;2024-03-25T01:45:02;66.78;;;44.28;;
5533;SDS011;2789;51.902;7.636;2024-03-25T01:46:03;97.43;;;59.65;;
5533;SDS011;2789;51.902;7.636;2024-03-25T01:47:05;91.45;;;55.45;;
5533;SDS011;2789;51.902;7.636;2024-03-25T01:48:07;93.38;;;56.25;;
5533;SDS011;2789;51.902;7.636;2024-03-25T01:49:10;70.30;;;47.33;;
5533;SDS011;2789;51.902;7.636;2024-03-25T01:50:11;69.15;;;46.67;;
5533;SDS011;2789;51.902;7.636;2024-03-25T01:51:12;65.90;;;46.25;;
5533;SDS011;2789;51.902;7.636;2024-03-25T01:52:14;49.83;;;38.67;;
5533;SDS011;2789;51.902;7.636;2024-03-25T01:53:15;53.08;;;39.90;;
5533;SDS011;2789;51.902;7.636;2024-03-25T01:54:16;45.78;;;37.75;;
5533;SDS011;2789;51.902;7.636;2024-03-25T01:55:18;45.33;;;37.63;;
5533;SDS011;2789;51.902;7.636;2024-03-25T01:56:22;41.58;;;34.78;;
5533;SDS011;2789;51.902;7.636;2024-03-25T01:57:23;45.90;;;36.10;;
5533;SDS011;2789;51.902;7.636;2024-03-25T01:58:26;42.97;;;35.58;;
5533;SDS011;2789;51.902;7.636;2024-03-25T01:59:26;46.78;;;39.05;;
5533;SDS011;2789;51.902;7.636;2024-03-25T02:00:28;69.38;;;47.38;;
5533;SDS011;2789;51.902;7.636;2024-03-25T02:01:29;110.38;;;58.15;;
5533;SDS011;2789;51.902;7.636;2024-03-25T02:02:31;65.85;;;43.58;;
5533;SDS011;2789;51.902;7.636;2024-03-25T02:03:33;87.88;;;52.83;;
5533;SDS011;2789;51.902;7.636;2024-03-25T02:04:35;84.60;;;50.85;;
5533;SDS011;2789;51.902;7.636;2024-03-25T02:05:36;68.15;;;45.58;;
5533;SDS011;2789;51.902;7.636;2024-03-25T02:06:37;74.15;;;45.83;;
5533;SDS011;2789;51.902;7.636;2024-03-25T02:07:39;81.30;;;50.20;;
5533;SDS011;2789;51.902;7.636;2024-03-25T02:08:42;88.78;;;51.22;;
5533;SDS011;2789;51.902;7.636;2024-03-25T02:09:42;77.05;;;45.40;;
5533;SDS011;2789;51.902;7.636;2024-03-25T02:10:44;86.82;;;55.22;;
5533;SDS011;2789;51.902;7.636;2024-03-25T02:11:46;67.38;;;46.70;;
5533;SDS011;2789;51.902;7.636;2024-03-25T02:12:46;36.72;;;32.55;;
5533;SDS011;2789;51.902;7.636;2024-03-25T02:13:49;38.20;;;33.17;;
5533;SDS011;2789;51.902;7.636;2024-03-25T02:14:50;54.17;;;41.00;;
5533;SDS011;2789;51.902;7.636;2024-03-25T02:15:52;69.80;;;45.05;;
5533;SDS011;2789;51.902;7.636;2024-03-25T02:16:54;59.60;;;43.35;;
5533;SDS011;2789;51.902;7.636;2024-03-25T02:17:55;47.03;;;36.88;;
5533;SDS011;2789;51.902;7.636;2024-03-25T02:18:56;71.15;;;44.95;;
5533;SDS011;2789;51.902;7.636;2024-03-25T02:19:58;69.25;;;47.42;;
5533;SDS011;2789;51.902;7.636;2024-03-25T02:20:58;125.45;;;58.70;;
5533;SDS011;2789;51.902;7.636;2024-03-25T02:21:59;62.92;;;43.92;;
5533;SDS011;2789;51.902;7.636;2024-03-25T02:23:00;67.75;;;45.78;;
5533;SDS011;2789;51.902;7.636;2024-03-25T02:24:02;78.95;;;50.58;;
5533;SDS011;2789;51.902;7.636;2024-03-25T02:25:07;121.63;;;63.72;;
5533;SDS011;2789;51.902;7.636;2024-03-25T02:26:10;113.85;;;62.05;;
5533;SDS011;2789;51.902;7.636;2024-03-25T02:27:12;116.40;;;61.70;;
5533;SDS011;2789;51.902;7.636;2024-03-25T02:28:14;57.47;;;41.38;;
5533;SDS011;2789;51.902;7.636;2024-03-25T02:29:15;52.75;;;41.13;;
5533;SDS011;2789;51.902;7.636;2024-03-25T02:30:16;41.70;;;37.08;;
5533;SDS011;2789;51.902;7.636;2024-03-25T02:31:17;55.15;;;41.38;;
5533;SDS011;2789;51.902;7.636;2024-03-25T02:32:18;47.67;;;38.70;;
5533;SDS011;2789;51.902;7.636;2024-03-25T02:33:19;60.17;;;43.15;;
5533;SDS011;2789;51.902;7.636;2024-03-25T02:34:20;70.78;;;46.85;;
5533;SDS011;2789;51.902;7.636;2024-03-25T02:35:22;100.03;;;52.80;;
5533;SDS011;2789;51.902;7.636;2024-03-25T02:36:23;66.05;;;44.65;;
5533;SDS011;2789;51.902;7.636;2024-03-25T02:37:24;82.00;;;47.45;;
5533;SDS011;2789;51.902;7.636;2024-03-25T02:38:26;55.00;;;40.95;;
5533;SDS011;2789;51.902;7.636;2024-03-25T02:39:28;62.80;;;44.75;;
5533;SDS011;2789;51.902;7.636;2024-03-25T02:40:29;95.60;;;52.63;;
5533;SDS011;2789;51.902;7.636;2024-03-25T02:41:31;66.40;;;44.30;;
5533;SDS011;2789;51.902;7.636;2024-03-25T02:42:35;66.20;;;45.95;;
5533;SDS011;2789;51.902;7.636;2024-03-25T02:43:36;48.60;;;38.05;;
5533;SDS011;2789;51.902;7.636;2024-03-25T02:44:36;47.40;;;37.83;;
5533;SDS011;2789;51.902;7.636;2024-03-25T02:45:37;88.88;;;53.63;;
5533;SDS011;2789;51.902;7.636;2024-03-25T02:46:39;68.22;;;43.38;;
5533;SDS011;2789;51.902;7.636;2024-03-25T02:47:40;81.30;;;48.25;;
5533;SDS011;2789;51.902;7.636;2024-03-25T02:48:40;71.85;;;44.40;;
5533;SDS011;2789;51.902;7.636;2024-03-25T02:49:42;86.47;;;49.30;;
5533;SDS011;2789;51.902;7.636;2024-03-25T02:50:43;88.47;;;55.55;;
5533;SDS011;2789;51.902;7.636;2024-03-25T02:51:44;77.70;;;46.25;;
5533;SDS011;2789;51.902;7.636;2024-03-25T02:52:44;90.30;;;56.78;;
5533;SDS011;2789;51.902;7.636;2024-03-25T02:53:46;69.50;;;45.33;;
5533;SDS011;2789;51.902;7.636;2024-03-25T02:54:47;54.80;;;39.33;;
5533;SDS011;2789;51.902;7.636;2024-03-25T02:55:48;68.07;;;45.92;;
5533;SDS011;2789;51.902;7.636;2024-03-25T02:56:50;78.28;;;49.92;;
5533;SDS011;2789;51.902;7.636;2024-03-25T02:57:51;57.58;;;40.35;;
5533;SDS011;2789;51.902;7.636;2024-03-25T02:58:52;45.40;;;35.67;;
5533;SDS011;2789;51.902;7.636;2024-03-25T02:59:53;37.63;;;31.52;;
5533;SDS011;2789;51.902;7.636;2024-03-25T03:00:54;32.22;;;28.77;;
5533;SDS011;2789;51.902;7.636;2024-03-25T03:01:55;72.40;;;45.70;;
5533;SDS011;2789;51.902;7.636;2024-03-25T03:02:56;29.80;;;26.65;;
5533;SDS011;2789;51.902;7.636;2024-03-25T03:03:57;44.72;;;33.13;;
5533;SDS011;2789;51.902;7.636;2024-03-25T03:04:57;51.22;;;34.15;;
5533;SDS011;2789;51.902;7.636;2024-03-25T03:05:59;52.45;;;35.20;;
5533;SDS011;2789;51.902;7.636;2024-03-25T03:07:00;38.13;;;29.90;;
5533;SDS011;2789;51.902;7.636;2024-03-25T03:08:01;33.58;;;28.00;;
5533;SDS011;2789;51.902;7.636;2024-03-25T03:09:01;58.35;;;36.50;;
5533;SDS011;2789;51.902;7.636;2024-03-25T03:10:03;56.65;;;35.65;;
5533;SDS011;2789;51.902;7.636;2024-03-25T03:11:05;40.60;;;28.17;;
5533;SDS011;2789;51.902;7.636;2024-03-25T03:12:07;44.33;;;30.88;;
5533;SDS011;2789;51.902;7.636;2024-03-25T03:13:08;53.28;;;34.55;;
5533;SDS011;2789;51.902;7.636;2024-03-25T03:14:10;52.13;;;34.30;;
5533;SDS011;2789;51.902;7.636;2024-03-25T03:15:11;44.25;;;30.23;;
5533;SDS011;2789;51.902;7.636;2024-03-25T03:16:12;41.50;;;28.63;;
5533;SDS011;2789;51.902;7.636;2024-03-25T03:17:12;46.38;;;30.13;;
5533;SDS011;2789;51.902;7.636;2024-03-25T03:18:14;53.95;;;31.73;;
5533;SDS011;2789;51.902;7.636;2024-03-25T03:19:15;45.92;;;29.67;;
5533;SDS011;2789;51.902;7.636;2024-03-25T03:20:15;50.97;;;31.83;;
5533;SDS011;2789;51.902;7.636;2024-03-25T03:21:16;72.10;;;40.08;;
5533;SDS011;2789;51.902;7.636;2024-03-25T03:22:17;31.73;;;25.25;;
5533;SDS011;2789;51.902;7.636;2024-03-25T03:23:19;39.75;;;27.05;;
5533;SDS011;2789;51.902;7.636;2024-03-25T03:24:19;41.45;;;29.73;;
5533;SDS011;2789;51.902;7.636;2024-03-25T03:25:20;26.40;;;23.63;;
5533;SDS011;2789;51.902;7.636;2024-03-25T03:26:21;24.88;;;22.35;;
5533;SDS011;2789;51.902;7.636;2024-03-25T03:27:28;24.70;;;22.10;;
5533;SDS011;2789;51.902;7.636;2024-03-25T03:28:28;24.23;;;21.80;;
5533;SDS011;2789;51.902;7.636;2024-03-25T03:29:29;53.58;;;33.60;;
5533;SDS011;2789;51.902;7.636;2024-03-25T03:30:30;35.65;;;27.35;;
5533;SDS011;2789;51.902;7.636;2024-03-25T03:31:32;22.80;;;20.50;;
5533;SDS011;2789;51.902;7.636;2024-03-25T03:32:34;27.13;;;22.20;;
5533;SDS011;2789;51.902;7.636;2024-03-25T03:33:35;36.70;;;25.02;;
5533;SDS011;2789;51.902;7.636;2024-03-25T03:34:36;22.95;;;19.20;;
5533;SDS011;2789;51.902;7.636;2024-03-25T03:35:37;36.33;;;25.10;;
5533;SDS011;2789;51.902;7.636;2024-03-25T03:36:38;30.98;;;22.92;;
5533;SDS011;2789;51.902;7.636;2024-03-25T03:37:40;21.20;;;18.88;;
5533;SDS011;2789;51.902;7.636;2024-03-25T03:38:41;20.75;;;18.55;;
5533;SDS011;2789;51.902;7.636;2024-03-25T03:39:43;29.60;;;22.55;;
5533;SDS011;2789;51.902;7.636;2024-03-25T03:40:44;44.00;;;28.00;;
5533;SDS011;2789;51.902;7.636;2024-03-25T03:41:45;21.42;;;18.25;;
5533;SDS011;2789;51.902;7.636;2024-03-25T03:42:48;21.15;;;18.35;;
5533;SDS011;2789;51.902;7.636;2024-03-25T03:43:48;22.73;;;19.70;;
5533;SDS011;2789;51.902;7.636;2024-03-25T03:44:49;49.13;;;29.05;;
5533;SDS011;2789;51.902;7.636;2024-03-25T03:45:50;59.50;;;35.63;;
5533;SDS011;2789;51.902;7.636;2024-03-25T03:46:51;197.10;;;99.30;;
5533;SDS011;2789;51.902;7.636;2024-03-25T03:47:53;56.75;;;33.58;;
5533;SDS011;2789;51.902;7.636;2024-03-25T03:48:53;33.05;;;24.88;;
5533;SDS011;2789;51.902;7.636;2024-03-25T03:49:54;57.85;;;34.58;;
5533;SDS011;2789;51.902;7.636;2024-03-25T03:50:57;22.25;;;19.67;;
5533;SDS011;2789;51.902;7.636;2024-03-25T03:51:58;34.83;;;25.20;;
5533;SDS011;2789;51.902;7.636;2024-03-25T03:52:58;24.92;;;22.27;;
5533;SDS011;2789;51.902;7.636;2024-03-25T03:53:59;19.77;;;18.05;;
5533;SDS011;2789;51.902;7.636;2024-03-25T03:55:01;26.08;;;21.50;;
5533;SDS011;2789;51.902;7.636;2024-03-25T03:56:02;32.78;;;23.90;;
5533;SDS011;2789;51.902;7.636;2024-03-25T03:57:05;22.20;;;18.15;;
5533;SDS011;2789;51.902;7.636;2024-03-25T03:58:07;42.63;;;26.88;;
5533;SDS011;2789;51.902;7.636;2024-03-25T03:59:09;45.88;;;28.13;;
5533;SDS011;2789;51.902;7.636;2024-03-25T04:00:10;38.60;;;25.05;;
5533;SDS011;2789;51.902;7.636;2024-03-25T04:01:15;38.15;;;25.23;;
5533;SDS011;2789;51.902;7.636;2024-03-25T04:02:16;66.25;;;34.25;;
5533;SDS011;2789;51.902;7.636;2024-03-25T04:03:18;42.30;;;26.02;;
5533;SDS011;2789;51.902;7.636;2024-03-25T04:04:19;40.10;;;24.50;;
5533;SDS011;2789;51.902;7.636;2024-03-25T04:05:19;57.20;;;30.67;;
5533;SDS011;2789;51.902;7.636;2024-03-25T04:06:21;34.10;;;21.40;;
5533;SDS011;2789;51.902;7.636;2024-03-25T04:07:22;55.42;;;29.63;;
5533;SDS011;2789;51.902;7.636;2024-03-25T04:08:26;46.42;;;25.88;;
5533;SDS011;2789;51.902;7.636;2024-03-25T04:09:28;42.25;;;24.02;;
5533;SDS011;2789;51.902;7.636;2024-03-25T04:10:30;133.32;;;65.10;;
5533;SDS011;2789;51.902;7.636;2024-03-25T04:11:30;21.50;;;16.63;;
5533;SDS011;2789;51.902;7.636;2024-03-25T04:12:31;19.40;;;16.80;;
5533;SDS011;2789;51.902;7.636;2024-03-25T04:13:34;36.30;;;22.75;;
5533;SDS011;2789;51.902;7.636;2024-03-25T04:14:35;19.50;;;16.58;;
5533;SDS011;2789;51.902;7.636;2024-03-25T04:15:36;40.60;;;24.35;;
5533;SDS011;2789;51.902;7.636;2024-03-25T04:16:37;25.50;;;18.63;;
5533;SDS011;2789;51.902;7.636;2024-03-25T04:17:38;30.65;;;20.45;;
5533;SDS011;2789;51.902;7.636;2024-03-25T04:18:40;23.08;;;17.52;;
5533;SDS011;2789;51.902;7.636;2024-03-25T04:19:42;29.17;;;20.27;;
5533;SDS011;2789;51.902;7.636;2024-03-25T04:20:43;48.40;;;26.40;;
5533;SDS011;2789;51.902;7.636;2024-03-25T04:21:44;19.17;;;15.30;;
5533;SDS011;2789;51.902;7.636;2024-03-25T04:22:46;22.08;;;16.83;;
5533;SDS011;2789;51.902;7.636;2024-03-25T04:23:47;33.03;;;21.38;;
5533;SDS011;2789;51.902;7.636;2024-03-25T04:24:49;44.15;;;24.85;;
5533;SDS011;2789;51.902;7.636;2024-03-25T04:25:51;32.13;;;20.27;;
5533;SDS011;2789;51.902;7.636;2024-03-25T04:26:52;25.02;;;18.20;;
5533;SDS011;2789;51.902;7.636;2024-03-25T04:27:52;37.83;;;23.02;;
5533;SDS011;2789;51.902;7.636;2024-03-25T04:28:54;23.08;;;16.77;;
5533;SDS011;2789;51.902;7.636;2024-03-25T04:29:56;34.35;;;21.88;;
5533;SDS011;2789;51.902;7.636;2024-03-25T04:30:57;13.52;;;12.30;;
5533;SDS011;2789;51.902;7.636;2024-03-25T04:31:58;75.60;;;36.97;;
5533;SDS011;2789;51.902;7.636;2024-03-25T04:32:58;31.13;;;20.48;;
5533;SDS011;2789;51.902;7.636;2024-03-25T04:34:00;22.75;;;17.80;;
5533;SDS011;2789;51.902;7.636;2024-03-25T04:35:01;20.20;;;16.17;;
5533;SDS011;2789;51.902;7.636;2024-03-25T04:36:02;36.97;;;22.05;;
5533;SDS011;2789;51.902;7.636;2024-03-25T04:37:04;17.35;;;15.50;;
5533;SDS011;2789;51.902;7.636;2024-03-25T04:38:05;47.80;;;26.67;;
5533;SDS011;2789;51.902;7.636;2024-03-25T04:39:06;21.48;;;16.55;;
5533;SDS011;2789;51.902;7.636;2024-03-25T04:40:07;18.80;;;15.40;;
5533;SDS011;2789;51.902;7.636;2024-03-25T04:41:08;42.30;;;23.58;;
5533;SDS011;2789;51.902;7.636;2024-03-25T04:42:09;22.88;;;16.73;;
5533;SDS011;2789;51.902;7.636;2024-03-25T04:43:10;30.25;;;20.08;;
5533;SDS011;2789;51.902;7.636;2024-03-25T04:44:12;18.67;;;14.82;;
5533;SDS011;2789;51.902;7.636;2024-03-25T04:45:13;36.75;;;21.30;;
5533;SDS011;2789;51.902;7.636;2024-03-25T04:46:14;44.80;;;23.05;;
5533;SDS011;2789;51.902;7.636;2024-03-25T04:47:15;45.08;;;24.15;;
5533;SDS011;2789;51.902;7.636;2024-03-25T04:48:15;31.48;;;18.25;;
5533;SDS011;2789;51.902;7.636;2024-03-25T04:49:16;64.93;;;29.48;;
5533;SDS011;2789;51.902;7.636;2024-03-25T04:50:17;36.10;;;18.63;;
5533;SDS011;2789;51.902;7.636;2024-03-25T04:51:18;39.83;;;21.40;;
5533;SDS011;2789;51.902;7.636;2024-03-25T04:52:19;40.67;;;20.50;;
5533;SDS011;2789;51.902;7.636;2024-03-25T04:53:20;44.78;;;21.63;;
5533;SDS011;2789;51.902;7.636;2024-03-25T04:54:21;37.50;;;18.90;;
5533;SDS011;2789;51.902;7.636;2024-03-25T04:55:21;39.67;;;20.48;;
5533;SDS011;2789;51.902;7.636;2024-03-25T04:56:22;49.42;;;23.88;;
5533;SDS011;2789;51.902;7.636;2024-03-25T04:57:23;39.83;;;20.05;;
5533;SDS011;2789;51.902;7.636;2024-03-25T04:58:24;26.52;;;14.82;;
5533;SDS011;2789;51.902;7.636;2024-03-25T04:59:26;38.00;;;19.40;;
5533;SDS011;2789;51.902;7.636;2024-03-25T05:00:27;65.53;;;30.02;;
5533;SDS011;2789;51.902;7.636;2024-03-25T05:01:28;24.20;;;15.10;;
5533;SDS011;2789;51.902;7.636;2024-03-25T05:02:29;54.70;;;26.92;;
5533;SDS011;2789;51.902;7.636;2024-03-25T05:03:30;46.78;;;23.48;;
5533;SDS011;2789;51.902;7.636;2024-03-25T05:04:31;23.02;;;14.52;;
5533;SDS011;2789;51.902;7.636;2024-03-25T05:05:32;17.42;;;12.90;;
5533;SDS011;2789;51.902;7.636;2024-03-25T05:06:32;20.17;;;13.43;;
5533;SDS011;2789;51.902;7.636;2024-03-25T05:07:33;18.15;;;11.48;;
5533;SDS011;2789;51.902;7.636;2024-03-25T05:08:34;47.95;;;25.10;;
5533;SDS011;2789;51.902;7.636;2024-03-25T05:09:35;10.95;;;9.90;;
5533;SDS011;2789;51.902;7.636;2024-03-25T05:10:36;51.38;;;26.13;;
5533;SDS011;2789;51.902;7.636;2024-03-25T05:11:36;48.72;;;25.42;;
5533;SDS011;2789;51.902;7.636;2024-03-25T05:12:38;25.17;;;16.17;;
5533;SDS011;2789;51.902;7.636;2024-03-25T05:13:39;22.05;;;15.05;;
5533;SDS011;2789;51.902;7.636;2024-03-25T05:14:41;39.60;;;22.52;;
5533;SDS011;2789;51.902;7.636;2024-03-25T05:15:48;21.23;;;15.25;;
5533;SDS011;2789;51.902;7.636;2024-03-25T05:16:50;24.70;;;15.75;;
5533;SDS011;2789;51.902;7.636;2024-03-25T05:17:50;17.58;;;13.60;;
5533;SDS011;2789;51.902;7.636;2024-03-25T05:18:51;19.08;;;14.73;;
5533;SDS011;2789;51.902;7.636;2024-03-25T05:19:52;28.75;;;18.63;;
5533;SDS011;2789;51.902;7.636;2024-03-25T05:20:53;20.95;;;15.88;;
5533;SDS011;2789;51.902;7.636;2024-03-25T05:21:54;24.60;;;17.63;;
5533;SDS011;2789;51.902;7.636;2024-03-25T05:22:54;35.38;;;22.00;;
5533;SDS011;2789;51.902;7.636;2024-03-25T05:23:55;18.83;;;14.50;;
5533;SDS011;2789;51.902;7.636;2024-03-25T05:24:56;24.63;;;16.25;;
5533;SDS011;2789;51.902;7.636;2024-03-25T05:25:57;36.00;;;20.98;;
5533;SDS011;2789;51.902;7.636;2024-03-25T05:26:58;13.25;;;12.05;;
5533;SDS011;2789;51.902;7.636;2024-03-25T05:27:58;20.90;;;16.30;;
5533;SDS011;2789;51.902;7.636;2024-03-25T05:28:59;23.20;;;17.15;;
5533;SDS011;2789;51.902;7.636;2024-03-25T05:30:02;27.45;;;17.65;;
5533;SDS011;2789;51.902;7.636;2024-03-25T05:31:06;28.90;;;18.30;;
5533;SDS011;2789;51.902;7.636;2024-03-25T05:32:07;22.55;;;14.52;;
5533;SDS011;2789;51.902;7.636;2024-03-25T05:33:08;55.25;;;28.55;;
5533;SDS011;2789;51.902;7.636;2024-03-25T05:34:08;36.90;;;21.23;;
5533;SDS011;2789;51.902;7.636;2024-03-25T05:35:09;38.78;;;21.38;;
5533;SDS011;2789;51.902;7.636;2024-03-25T05:36:10;23.70;;;15.43;;
5533;SDS011;2789;51.902;7.636;2024-03-25T05:37:11;59.35;;;29.92;;
5533;SDS011;2789;51.902;7.636;2024-03-25T05:38:12;25.23;;;17.05;;
5533;SDS011;2789;51.902;7.636;2024-03-25T05:39:13;38.80;;;22.95;;
5533;SDS011;2789;51.902;7.636;2024-03-25T05:40:13;16.65;;;13.23;;
5533;SDS011;2789;51.902;7.636;2024-03-25T05:41:15;52.40;;;27.88;;
5533;SDS011;2789;51.902;7.636;2024-03-25T05:42:15;14.77;;;12.60;;
5533;SDS011;2789;51.902;7.636;2024-03-25T05:43:16;41.35;;;23.42;;
5533;SDS011;2789;51.902;7.636;2024-03-25T05:44:17;43.70;;;23.35;;
5533;SDS011;2789;51.902;7.636;2024-03-25T05:45:19;38.42;;;21.13;;
5533;SDS011;2789;51.902;7.636;2024-03-25T05:46:20;53.22;;;28.08;;
5533;SDS011;2789;51.902;7.636;2024-03-25T05:47:21;36.53;;;21.08;;
5533;SDS011;2789;51.902;7.636;2024-03-25T05:48:22;37.50;;;21.67;;
5533;SDS011;2789;51.902;7.636;2024-03-25T05:49:24;65.85;;;32.00;;
5533;SDS011;2789;51.902;7.636;2024-03-25T05:50:25;30.25;;;18.10;;
5533;SDS011;2789;51.902;7.636;2024-03-25T05:51:26;36.00;;;19.63;;
5533;SDS011;2789;51.902;7.636;2024-03-25T05:52:28;50.38;;;26.17;;
5533;SDS011;2789;51.902;7.636;2024-03-25T05:53:29;33.15;;;19.42;;
5533;SDS011;2789;51.902;7.636;2024-03-25T05:54:29;41.60;;;22.67;;
5533;SDS011;2789;51.902;7.636;2024-03-25T05:55:30;53.58;;;28.10;;
5533;SDS011;2789;51.902;7.636;2024-03-25T05:56:31;40.15;;;22.13;;
5533;SDS011;2789;51.902;7.636;2024-03-25T05:57:32;29.95;;;18.55;;
5533;SDS011;2789;51.902;7.636;2024-03-25T05:58:33;68.78;;;34.85;;
5533;SDS011;2789;51.902;7.636;2024-03-25T05:59:33;19.73;;;15.70;;
5533;SDS011;2789;51.902;7.636;2024-03-25T06:00:35;36.85;;;21.85;;
5533;SDS011;2789;51.902;7.636;2024-03-25T06:01:36;25.23;;;17.23;;
5533;SDS011;2789;51.902;7.636;2024-03-25T06:02:37;23.55;;;17.65;;
5533;SDS011;2789;51.902;7.636;2024-03-25T06:03:38;32.67;;;20.25;;
5533;SDS011;2789;51.902;7.636;2024-03-25T06:04:39;14.73;;;13.35;;
5533;SDS011;2789;51.902;7.636;2024-03-25T06:05:39;15.60;;;14.00;;
5533;SDS011;2789;51.902;7.636;2024-03-25T06:06:40;31.45;;;20.85;;
5533;SDS011;2789;51.902;7.636;2024-03-25T06:07:41;17.08;;;14.20;;
5533;SDS011;2789;51.902;7.636;2024-03-25T06:08:42;26.13;;;18.90;;
5533;SDS011;2789;51.902;7.636;2024-03-25T06:09:43;20.55;;;18.20;;